Sélectionnez une autre période ( cacher cette zone )

Les unités Période Gamme personnalisée Directement à
métriques impériales les deux
par jour par semaine mensuel annuel
utiliser les deux sélecteurs de date pour une gamme personnalisée
précédente Jour
Avec cette date
par jour Résumé pour Samedi Feb 24 2024
Temps Temp. ( °C ) Pt. de rosée ( °C ) Vent ( km/h ) De Rafale ( km/h ) Pression baro ( hPa ) Humid.( % ) Débit de pluie ( cm ) Solaire ( W/m2 ) Cond.
Élevé9,1 5,5 27,0 Sud ( 1049/2624 ) 33,0 1000,8 96 9,60 537.3 nbsp;
Moyenne5,6 3,6 10,7 Sud #88/246 13,9 998,5 87 5,90 169 #136/246 nbsp;
Basse3,5 2,0 3,0   4,0 994,2 72 -    
par jour Détails du tableau pour Samedi Feb 24 2024
Temps Temp. ( °C ) Pt. de rosée ( °C ) Vent ( km/h ) De Rafale ( km/h ) Pression baro ( hPa ) Humid.( % ) Débit de pluie ( cm ) Solaire ( W/m2 ) Cond.
00:04 4,8 3,9 16,0 SO 17,0 994,2 94 - - unknown
00:09 4,8 3,9 13,0 SO 18,0 994,2 94 - - unknown
00:14 4,8 3,9 14,0 SSO 18,0 994,2 94 - - unknown
00:19 4,8 3,8 13,0 SSE 15,0 994,2 93 - - unknown
00:24 4,7 3,7 10,0 SSO 16,0 994,3 93 - - unknown
00:29 4,7 3,8 18,0 SSE 19,0 994,4 94 0,61 - unknown
00:34 4,7 3,8 10,0 SSO 19,0 994,3 94 0,61 - unknown
00:39 4,6 3,7 10,0 SO 13,0 994,3 94 0,61 - unknown
00:44 4,6 3,7 7,0 Sud 12,0 994,5 94 - - unknown
00:49 4,6 3,7 7,0 SE 7,0 994,6 94 - - unknown
00:54 4,6 3,7 11,0 SO 14,0 994,6 94 - - unknown
00:59 4,6 3,7 8,0 SSO 14,0 994,7 94 - - unknown
01:04 4,6 3,7 6,0 SSE 8,0 994,7 94 - - unknown
01:09 4,6 3,7 6,0 NNE 8,0 994,7 94 - - unknown
01:14 4,6 3,7 12,0 Sud 12,0 994,6 94 - - unknown
01:19 4,6 3,7 9,0 Sud 9,0 994,8 94 - - unknown
01:24 4,6 3,7 7,0 SSO 9,0 994,8 94 - - unknown
01:29 4,6 3,7 6,0 SSO 8,0 994,9 94 - - unknown
01:34 4,6 3,7 4,0 ESE 6,0 994,9 94 - - unknown
01:39 4,6 3,7 7,0 SO 15,0 994,9 94 - - unknown
01:44 4,5 3,6 12,0 SSO 12,0 994,8 94 - - unknown
01:49 4,5 3,5 10,0 SSO 12,0 995,0 93 - - unknown
01:54 4,5 3,5 8,0 SSE 12,0 994,9 93 - - unknown
01:59 4,5 3,5 18,0 SSO 19,0 994,9 93 - - unknown
02:04 4,5 3,3 6,0 SSE 7,0 994,9 92 - - unknown
02:09 4,4 3,2 6,0 SSE 7,0 995,1 92 - - unknown
02:14 4,3 3,1 7,0 SSE 10,0 995,1 92 - - unknown
02:19 4,2 3,0 3,0 ENE 8,0 995,1 92 - - unknown
02:24 4,2 3,0 7,0 NO 9,0 995,4 92 - - unknown
02:29 4,0 2,8 5,0 ESE 5,0 995,5 92 - - unknown
02:34 3,9 2,7 7,0 SE 8,0 995,5 92 - - unknown
02:39 3,9 2,8 9,0 SO 11,0 995,5 93 - - unknown
02:44 3,9 2,8 10,0 SSE 17,0 995,6 93 - - unknown
02:49 4,0 2,6 8,0 Sud 17,0 995,6 91 - - unknown
02:54 4,1 2,5 7,0 SE 9,0 995,6 90 - - unknown
02:59 4,1 2,6 6,0 Est 7,0 995,5 90 - - unknown
03:04 4,1 2,6 6,0 SSE 10,0 995,4 90 - - unknown
03:09 4,1 2,6 7,0 Sud 10,0 995,5 90 - - unknown
03:14 4,1 2,5 5,0 SSE 8,0 995,5 89 - - unknown
03:19 4,1 2,5 4,0 Est 6,0 995,6 89 - - unknown
03:24 4,0 2,4 7,0 SSE 8,0 995,6 89 - - unknown
03:29 4,0 2,3 6,0 SSE 7,0 995,7 89 - - unknown
03:34 3,9 2,3 5,0 Sud 7,0 995,8 89 - - unknown
03:39 3,8 2,2 5,0 NNO 6,0 995,8 89 - - unknown
03:44 3,8 2,3 7,0 Sud 7,0 995,8 90 - - unknown
03:49 3,8 2,3 6,0 SE 7,0 995,8 90 - - unknown
03:54 3,7 2,4 7,0 SSE 7,0 995,8 91 - - unknown
03:59 3,7 2,4 4,0 SSO 5,0 995,8 91 - - unknown
04:04 3,6 2,3 4,0 Est 6,0 995,9 91 - - unknown
04:09 3,6 2,4 10,0 SE 10,0 995,9 92 - - unknown
04:14 3,6 2,4 8,0 SSO 10,0 996,1 92 - - unknown
04:19 3,6 2,4 4,0 Est 8,0 996,1 92 - - unknown
04:24 3,5 2,3 4,0 Est 4,0 996,0 92 - - unknown
04:29 3,6 2,4 8,0 Sud 10,0 996,0 92 - - unknown
04:34 3,6 2,4 8,0 Sud 9,0 996,1 92 - - unknown
04:39 3,7 2,4 7,0 SSO 8,0 996,1 92 - - unknown
04:44 3,7 2,5 5,0 ESE 7,0 996,0 92 - - unknown
04:49 3,6 2,3 5,0 SE 6,0 996,1 91 - - unknown
04:54 3,6 2,3 9,0 SSE 10,0 996,1 91 - - unknown
04:59 3,5 2,0 9,0 SSE 10,0 996,3 90 - - unknown
05:04 3,6 2,1 8,0 SSE 14,0 996,4 90 - - unknown
05:09 3,6 2,3 5,0 Est 8,0 996,5 91 - - unknown
05:14 3,6 2,3 9,0 SSE 9,0 996,5 91 - - unknown
05:19 3,8 2,4 10,0 Sud 12,0 996,4 91 - - unknown
05:24 3,8 2,5 6,0 SSE 11,0 996,5 91 - - unknown
05:29 3,8 2,5 9,0 SSE 10,0 996,6 91 - - unknown
05:34 3,8 2,5 8,0 SSE 9,0 996,8 91 - - unknown
05:39 3,8 2,5 11,0 Sud 16,0 996,8 91 - - unknown
05:44 3,8 2,5 7,0 Sud 10,0 996,9 91 - - unknown
05:49 3,8 2,5 7,0 Sud 8,0 997,1 91 - - unknown
05:54 3,8 2,5 8,0 Sud 9,0 997,0 91 - - unknown
05:59 3,8 2,5 16,0 Sud 17,0 997,1 91 - - unknown
06:04 3,7 2,4 10,0 SE 11,0 997,1 91 - - unknown
06:09 3,7 2,5 8,0 SO 11,0 997,3 92 - - unknown
06:14 3,7 2,5 8,0 SSO 11,0 997,3 92 - - unknown
06:19 3,7 2,5 10,0 SSO 10,0 997,1 92 - - unknown
06:24 3,7 2,6 8,0 ESE 10,0 997,2 93 - - unknown
06:29 3,6 2,6 10,0 SSO 13,0 997,3 93 - - unknown
06:34 3,6 2,6 9,0 SSO 12,0 997,3 93 - - unknown
06:39 3,6 2,6 14,0 SSO 15,0 997,4 93 - - unknown
06:44 3,6 2,6 9,0 SSO 11,0 997,4 93 - - unknown
06:49 3,7 2,7 9,0 SO 12,0 997,5 93 - - unknown
06:54 3,7 2,7 9,0 SSO 9,0 997,7 93 - - unknown
06:59 3,7 2,7 9,0 SSO 10,0 997,7 93 - - unknown
07:04 3,7 2,7 11,0 Sud 12,0 997,7 93 - - unknown
07:09 3,7 2,5 12,0 Sud 13,0 998,0 92 - - unknown
07:14 3,7 2,5 9,0 Sud 15,0 997,8 92 - - unknown
07:19 3,7 2,5 10,0 SE 11,0 997,9 92 - - unknown
07:24 3,7 2,5 8,0 Sud 11,0 998,1 92 - - unknown
07:29 3,7 2,4 13,0 Sud 16,0 998,1 92 - 0.2 unknown
07:34 3,6 2,4 7,0 Ouest 10,0 998,0 92 - 0.7 unknown
07:39 3,6 2,4 13,0 SO 16,0 998,0 92 - 1.5 unknown
07:44 3,6 2,3 12,0 SSE 13,0 998,1 91 - 2.2 unknown
07:49 3,6 2,4 5,0 ESE 8,0 998,2 92 - 2.1 unknown
07:54 3,6 2,4 9,0 Ouest 9,0 998,4 92 - 3.3 unknown
07:59 3,6 2,4 7,0 SO 8,0 998,5 92 - 2.6 unknown
08:04 3,7 2,5 7,0 SO 8,0 998,5 92 - 4.4 unknown
08:09 3,7 2,5 6,0 SO 8,0 998,6 92 - 7 unknown
08:14 3,7 2,5 8,0 Sud 8,0 998,5 92 - 10.7 unknown
08:19 3,7 2,5 8,0 SSE 12,0 998,6 92 - 11.3 unknown
08:24 3,8 2,5 9,0 SSO 12,0 998,6 91 - 18.2 unknown
08:29 3,8 2,5 7,0 SSE 10,0 998,6 91 - 23.1 unknown
08:34 3,9 2,6 10,0 Sud 12,0 998,8 91 - 34.8 unknown
08:39 3,9 2,6 12,0 SSO 14,0 998,6 91 - 36.5 unknown
08:44 3,9 2,4 7,0 Sud 11,0 998,7 90 - 36.2 unknown
08:49 4,0 2,6 8,0 OSO 12,0 998,9 91 - 72.5 unknown
08:54 4,0 2,7 13,0 Sud 16,0 999,0 91 - 60.5 unknown
08:59 4,0 2,5 12,0 SSO 17,0 999,2 90 - 44.5 unknown
09:04 4,1 2,6 9,0 SSO 11,0 999,3 90 - 45.4 unknown
09:09 4,1 2,6 5,0 Sud 11,0 999,2 90 - 53.7 unknown
09:14 4,1 2,6 11,0 SSO 12,0 999,3 90 - 84.7 unknown
09:19 4,1 2,6 16,0 SSO 18,0 999,3 90 - 82 unknown
09:24 4,2 2,9 8,0 SE 10,0 999,4 91 - 100.6 unknown
09:29 4,2 2,9 8,0 SSE 8,0 999,4 91 - 111.2 unknown
09:34 4,3 2,8 8,0 SE 9,0 999,5 90 - 117.1 unknown
09:39 4,4 2,9 9,0 SSO 10,0 999,6 90 - 152.3 unknown
09:44 4,5 3,0 10,0 Sud 11,0 999,7 90 - 177.3 unknown
09:49 4,6 3,1 10,0 Sud 10,0 999,6 90 - 184.5 unknown
09:54 4,7 3,2 6,0 NO 7,0 999,6 90 - 170.6 unknown
09:59 4,8 3,2 7,0 ESE 11,0 999,7 90 - 144.4 unknown
10:04 4,9 3,3 11,0 SE 13,0 999,8 90 - 157.3 unknown
10:09 4,9 3,2 5,0 SO 13,0 999,6 89 - 145.9 unknown
10:14 4,9 3,1 13,0 SSE 18,0 999,8 88 - 196.3 unknown
10:19 4,9 3,1 9,0 Sud 17,0 999,9 88 - 171.7 unknown
10:24 4,8 3,0 12,0 SO 17,0 999,9 88 - 272 unknown
10:29 4,9 3,1 7,0 SO 13,0 1000,0 88 - 264.9 unknown
10:34 5,0 3,2 18,0 SSO 27,0 1000,1 88 - 175.4 unknown
10:39 5,0 3,2 18,0 Sud 27,0 1000,2 88 - 182.4 unknown
10:44 5,1 3,3 11,0 Sud 21,0 1000,3 88 - 369.1 unknown
10:49 5,2 3,4 19,0 SSO 20,0 1000,4 88 - 288.2 unknown
10:54 5,5 3,7 10,0 SSE 12,0 1000,4 88 - 387.9 unknown
10:59 5,8 3,7 13,0 SSE 18,0 1000,3 88 - 332.6 unknown
11:04 5,8 3,5 16,0 Sud 19,0 1000,2 85 - 343.7 unknown
11:09 6,2 3,7 13,0 SSO 18,0 1000,3 86 - 372.9 unknown
11:14 6,4 3,8 8,0 SSE 17,0 1000,4 84 - 380.8 unknown
11:19 6,3 3,6 16,0 Sud 20,0 1000,5 83 - 351.1 unknown
11:24 6,4 3,9 9,0 SSE 19,0 1000,6 84 - 419 unknown
11:29 6,5 3,9 16,0 Sud 18,0 1000,4 84 - 384.5 unknown
11:34 6,5 3,7 17,0 Sud 18,0 1000,5 83 - 243.2 unknown
11:39 6,5 3,8 14,0 SSO 18,0 1000,6 83 - 372.3 unknown
11:44 6,6 3,9 12,0 SSO 16,0 1000,6 83 - 239.5 unknown
11:49 6,6 3,9 9,0 Sud 14,0 1000,6 83 - 400.5 unknown
11:54 6,9 4,0 12,0 Sud 17,0 1000,5 82 - 389.5 unknown
11:59 7,0 4,1 11,0 SSO 15,0 1000,7 82 - 375.5 unknown
12:04 7,1 4,1 15,0 SSO 19,0 1000,5 81 - 458 unknown
12:09 7,3 4,1 16,0 Sud 20,0 1000,6 81 - 407.2 unknown
12:14 7,4 4,0 15,0 Sud 21,0 1000,7 79 - 453.8 unknown
12:19 7,6 4,1 12,0 Sud 21,0 1000,6 79 - 512.1 unknown
12:24 7,6 4,2 12,0 Sud 20,0 1000,6 79 - 403.2 unknown
12:29 7,5 4,0 20,0 Sud 24,0 1000,7 79 - 434.5 unknown
12:34 7,5 4,2 13,0 SSE 14,0 1000,6 80 - 537.3 unknown
12:39 7,7 4,3 24,0 SO 24,0 1000,6 79 - 478 unknown
12:44 7,9 4,4 12,0 Sud 24,0 1000,4 79 - 389.3 unknown
12:49 8,0 4,5 13,0 SO 17,0 1000,6 79 - 528 unknown
12:54 8,1 4,4 15,0 SSO 22,0 1000,6 78 - 470.2 unknown
12:59 8,0 4,4 14,0 Sud 21,0 1000,5 78 - 331 unknown
13:04 7,9 4,3 15,0 Sud 16,0 1000,5 78 - 401.9 unknown
13:09 8,1 4,4 11,0 Sud 14,0 1000,5 78 - 506 unknown
13:14 8,3 4,5 17,0 SSO 19,0 1000,5 77 - 526.9 unknown
13:19 8,4 4,5 14,0 Sud 26,0 1000,3 77 - 387 unknown
13:24 8,4 4,2 16,0 SSE 21,0 1000,5 75 - 313.1 unknown
13:29 8,3 4,1 15,0 Sud 23,0 1000,5 75 - 210.9 unknown
13:34 8,4 4,3 10,0 SSO 14,0 1000,4 76 - 244.8 unknown
13:39 8,4 4,4 20,0 Sud 23,0 1000,3 76 - 428 unknown
13:44 8,8 4,6 16,0 Sud 19,0 1000,2 76 - 442.5 unknown
13:49 8,9 4,4 14,0 Sud 28,0 1000,0 74 - 317.8 unknown
13:54 8,9 4,0 17,0 SSO 28,0 1000,0 72 - 281.9 unknown
13:59 8,8 4,2 14,0 Sud 17,0 1000,1 73 - 244.4 unknown
14:04 8,8 4,2 16,0 SSO 21,0 1000,1 73 - 198.9 unknown
14:09 8,7 4,1 19,0 SSO 23,0 1000,3 73 - 166.9 unknown
14:14 8,7 4,1 14,0 Sud 17,0 1000,3 73 - 176.3 unknown
14:19 8,6 4,2 14,0 Sud 19,0 1000,3 74 - 145.5 unknown
14:24 8,7 4,2 14,0 Sud 19,0 1000,2 74 - 183.9 unknown
14:29 8,8 4,5 18,0 SSE 18,0 1000,1 75 - 369.1 unknown
14:34 9,0 4,4 15,0 Sud 24,0 1000,0 73 - 350.8 unknown
14:39 9,1 4,4 18,0 Sud 24,0 1000,0 73 - 309.6 unknown
14:44 9,1 4,3 16,0 Sud 24,0 1000,2 72 - 195.2 unknown
14:49 9,1 4,3 18,0 Sud 27,0 1000,2 72 - 195.2 unknown
14:54 9,1 4,3 16,0 Sud 18,0 1000,1 72 - 150.2 unknown
14:59 9,1 4,3 16,0 SSO 20,0 1000,1 72 - 136.4 unknown
15:04 9,0 4,2 15,0 SSO 19,0 1000,1 72 - 115.9 unknown
15:09 9,0 4,2 15,0 Sud 16,0 1000,1 72 - 98.5 unknown
15:14 9,0 4,1 17,0 SSO 25,0 1000,2 72 - 91.9 unknown
15:19 8,9 4,2 9,0 SSO 18,0 1000,1 73 - 85.3 unknown
15:24 8,8 4,4 14,0 Sud 17,0 1000,1 74 - 121.6 unknown
15:29 8,9 4,3 22,0 SSO 23,0 1000,0 73 - 168.2 unknown
15:34 8,9 4,5 12,0 Sud 17,0 999,9 74 - 126.9 unknown
15:39 8,9 4,5 10,0 Sud 10,0 999,9 74 - 104.3 unknown
15:44 9,0 4,6 12,0 Sud 14,0 999,8 74 - 85.5 unknown
15:49 8,9 4,5 8,0 Sud 8,0 999,8 74 - 78.7 unknown
15:54 8,9 4,5 12,0 Sud 16,0 999,8 74 - 72.3 unknown
15:59 8,9 4,5 12,0 Sud 17,0 999,8 74 - 71 unknown
16:04 8,9 4,3 12,0 SSE 21,0 999,9 73 - 56.3 unknown
16:09 8,9 4,3 12,0 SSO 15,0 999,7 73 - 50.8 unknown
16:14 8,9 4,5 10,0 SSE 12,0 999,7 74 - 41.2 unknown
16:19 8,8 4,4 12,0 Sud 13,0 999,8 74 - 40.3 unknown
16:24 8,8 4,4 7,0 Sud 12,0 999,7 74 - 36.5 unknown
16:29 8,8 4,6 8,0 SE 10,0 999,6 75 - 29.2 unknown
16:34 8,8 4,4 16,0 Sud 17,0 999,6 74 - 27.4 unknown
16:39 8,8 4,3 16,0 SSE 17,0 999,7 74 - 26.8 unknown
16:44 8,7 4,1 16,0 SE 16,0 999,6 73 - 18.7 unknown
16:49 8,7 4,1 13,0 SSE 16,0 999,5 73 - 16.4 unknown
16:54 8,7 4,1 13,0 SE 18,0 999,4 73 - 15.5 unknown
16:59 8,7 4,1 8,0 SSO 8,0 999,4 73 - 14.1 unknown
17:04 8,7 4,6 11,0 SSO 11,0 999,5 76 - 5.3 unknown
17:09 8,6 4,6 12,0 Sud 17,0 999,7 76 1,19 5.3 unknown
17:14 8,5 5,2 12,0 Sud 17,0 999,8 81 3,00 7.7 unknown
17:19 8,3 5,5 12,0 Sud 18,0 1000,0 84 3,61 8.1 unknown
17:24 8,0 5,5 27,0 OSO 33,0 1000,3 84 4,80 4.3 unknown
17:29 7,5 5,3 18,0 SSO 21,0 1000,3 86 6,60 3.2 unknown
17:34 6,9 4,7 9,0 SSO 13,0 1000,5 89 8,41 2.4 unknown
17:39 6,4 4,7 17,0 SSE 18,0 1000,6 89 9,60 4.1 unknown
17:44 5,9 4,1 17,0 Sud 20,0 1000,6 89 7,80 4.9 unknown
17:49 5,4 4,0 9,0 SSO 19,0 1000,4 91 4,80 8.5 unknown
17:54 5,3 4,0 11,0 Sud 14,0 1000,5 92 3,00 8.4 unknown
17:59 5,0 3,8 8,0 Sud 10,0 1000,3 92 2,39 6.8 unknown
18:04 4,9 3,9 11,0 Sud 11,0 1000,2 93 2,39 6.7 unknown
18:09 4,9 4,0 7,0 SO 8,0 1000,1 94 3,00 4.6 unknown
18:14 4,9 4,0 8,0 SSE 9,0 1000,2 94 1,19 4.4 unknown
18:19 4,9 4,2 6,0 SSO 8,0 1000,1 95 1,19 4.1 unknown
18:24 4,9 4,2 11,0 Sud 12,0 1000,2 95 0,61 3.2 unknown
18:29 4,9 4,2 8,0 Sud 12,0 1000,3 95 0,61 1.3 unknown
18:34 4,9 4,2 11,0 SSE 13,0 1000,4 95 - 0.8 unknown
18:39 4,9 4,3 8,0 SSE 10,0 1000,4 96 - 0.3 unknown
18:44 5,0 4,4 5,0 SE 9,0 1000,4 96 - 0.1 unknown
18:49 5,0 4,4 7,0 SE 9,0 1000,4 96 - - unknown
18:54 5,1 4,5 5,0 SSE 7,0 1000,3 96 - - unknown
18:59 5,2 4,6 6,0 SSE 7,0 1000,4 96 - - unknown
19:04 5,3 4,7 9,0 SSO 12,0 1000,5 96 - - unknown
19:09 5,5 4,9 10,0 SSE 18,0 1000,6 96 - - unknown
19:14 5,6 4,9 9,0 Sud 10,0 1000,6 96 - - unknown
19:19 5,6 5,0 8,0 SSO 11,0 1000,7 96 - - unknown
19:24 5,6 5,0 8,0 Sud 10,0 1000,6 96 - - unknown
19:29 5,7 5,0 9,0 Sud 13,0 1000,8 95 - - unknown
19:34 5,7 5,0 9,0 SSE 11,0 1000,7 95 0,61 - unknown
19:39 5,8 5,1 7,0 SSE 10,0 1000,6 95 0,61 - unknown
19:44 5,8 5,1 12,0 Sud 14,0 1000,7 95 0,61 - unknown
19:49 5,8 4,9 17,0 Sud 18,0 1000,6 94 - - unknown
19:54 5,8 4,9 15,0 Sud 18,0 1000,5 94 - - unknown
19:59 5,8 4,9 9,0 SSO 15,0 1000,7 94 - - unknown
20:04 5,8 4,9 17,0 SSO 18,0 1000,8 94 - - unknown
20:09 5,8 4,9 12,0 SSO 15,0 1000,8 94 - - unknown
20:14 5,8 4,9 11,0 SSE 13,0 1000,7 94 - - unknown
20:19 5,8 4,9 11,0 Sud 13,0 1000,8 94 - - unknown
20:24 5,8 4,9 13,0 Sud 18,0 1000,8 94 - - unknown
20:29 5,8 4,9 8,0 Sud 13,0 1000,8 94 - - unknown
par jour Résumé pour Samedi Feb 24 2024
Temps Temp. ( °C ) Pt. de rosée ( °C ) Vent ( km/h ) De Rafale ( km/h ) Pression baro ( hPa ) Humid.( % ) Débit de pluie ( cm ) Solaire ( W/m2 ) Cond.
Élevé9,1 5,5 27,0 Sud ( 1049/2624 ) 33,0 1000,8 96 9,60 537.3 nbsp;
Moyenne5,6 3,6 10,7 Sud #88/246 13,9 998,5 87 5,90 169 #136/246 nbsp;
Basse3,5 2,0 3,0   4,0 994,2 72 -    
par jour Détails du tableau pour Samedi Feb 24 2024
Temps Temp. ( °C ) Pt. de rosée ( °C ) Vent ( km/h ) De Rafale ( km/h ) Pression baro ( hPa ) Humid.( % ) Débit de pluie ( cm ) Solaire ( W/m2 ) Cond.
00:04 4,8 3,9 16,0 SO 17,0 994,2 94 - - unknown
00:09 4,8 3,9 13,0 SO 18,0 994,2 94 - - unknown
00:14 4,8 3,9 14,0 SSO 18,0 994,2 94 - - unknown
00:19 4,8 3,8 13,0 SSE 15,0 994,2 93 - - unknown
00:24 4,7 3,7 10,0 SSO 16,0 994,3 93 - - unknown
00:29 4,7 3,8 18,0 SSE 19,0 994,4 94 0,61 - unknown
00:34 4,7 3,8 10,0 SSO 19,0 994,3 94 0,61 - unknown
00:39 4,6 3,7 10,0 SO 13,0 994,3 94 0,61 - unknown
00:44 4,6 3,7 7,0 Sud 12,0 994,5 94 - - unknown
00:49 4,6 3,7 7,0 SE 7,0 994,6 94 - - unknown
00:54 4,6 3,7 11,0 SO 14,0 994,6 94 - - unknown
00:59 4,6 3,7 8,0 SSO 14,0 994,7 94 - - unknown
01:04 4,6 3,7 6,0 SSE 8,0 994,7 94 - - unknown
01:09 4,6 3,7 6,0 NNE 8,0 994,7 94 - - unknown
01:14 4,6 3,7 12,0 Sud 12,0 994,6 94 - - unknown
01:19 4,6 3,7 9,0 Sud 9,0 994,8 94 - - unknown
01:24 4,6 3,7 7,0 SSO 9,0 994,8 94 - - unknown
01:29 4,6 3,7 6,0 SSO 8,0 994,9 94 - - unknown
01:34 4,6 3,7 4,0 ESE 6,0 994,9 94 - - unknown
01:39 4,6 3,7 7,0 SO 15,0 994,9 94 - - unknown
01:44 4,5 3,6 12,0 SSO 12,0 994,8 94 - - unknown
01:49 4,5 3,5 10,0 SSO 12,0 995,0 93 - - unknown
01:54 4,5 3,5 8,0 SSE 12,0 994,9 93 - - unknown
01:59 4,5 3,5 18,0 SSO 19,0 994,9 93 - - unknown
02:04 4,5 3,3 6,0 SSE 7,0 994,9 92 - - unknown
02:09 4,4 3,2 6,0 SSE 7,0 995,1 92 - - unknown
02:14 4,3 3,1 7,0 SSE 10,0 995,1 92 - - unknown
02:19 4,2 3,0 3,0 ENE 8,0 995,1 92 - - unknown
02:24 4,2 3,0 7,0 NO 9,0 995,4 92 - - unknown
02:29 4,0 2,8 5,0 ESE 5,0 995,5 92 - - unknown
02:34 3,9 2,7 7,0 SE 8,0 995,5 92 - - unknown
02:39 3,9 2,8 9,0 SO 11,0 995,5 93 - - unknown
02:44 3,9 2,8 10,0 SSE 17,0 995,6 93 - - unknown
02:49 4,0 2,6 8,0 Sud 17,0 995,6 91 - - unknown
02:54 4,1 2,5 7,0 SE 9,0 995,6 90 - - unknown
02:59 4,1 2,6 6,0 Est 7,0 995,5 90 - - unknown
03:04 4,1 2,6 6,0 SSE 10,0 995,4 90 - - unknown
03:09 4,1 2,6 7,0 Sud 10,0 995,5 90 - - unknown
03:14 4,1 2,5 5,0 SSE 8,0 995,5 89 - - unknown
03:19 4,1 2,5 4,0 Est 6,0 995,6 89 - - unknown
03:24 4,0 2,4 7,0 SSE 8,0 995,6 89 - - unknown
03:29 4,0 2,3 6,0 SSE 7,0 995,7 89 - - unknown
03:34 3,9 2,3 5,0 Sud 7,0 995,8 89 - - unknown
03:39 3,8 2,2 5,0 NNO 6,0 995,8 89 - - unknown
03:44 3,8 2,3 7,0 Sud 7,0 995,8 90 - - unknown
03:49 3,8 2,3 6,0 SE 7,0 995,8 90 - - unknown
03:54 3,7 2,4 7,0 SSE 7,0 995,8 91 - - unknown
03:59 3,7 2,4 4,0 SSO 5,0 995,8 91 - - unknown
04:04 3,6 2,3 4,0 Est 6,0 995,9 91 - - unknown
04:09 3,6 2,4 10,0 SE 10,0 995,9 92 - - unknown
04:14 3,6 2,4 8,0 SSO 10,0 996,1 92 - - unknown
04:19 3,6 2,4 4,0 Est 8,0 996,1 92 - - unknown
04:24 3,5 2,3 4,0 Est 4,0 996,0 92 - - unknown
04:29 3,6 2,4 8,0 Sud 10,0 996,0 92 - - unknown
04:34 3,6 2,4 8,0 Sud 9,0 996,1 92 - - unknown
04:39 3,7 2,4 7,0 SSO 8,0 996,1 92 - - unknown
04:44 3,7 2,5 5,0 ESE 7,0 996,0 92 - - unknown
04:49 3,6 2,3 5,0 SE 6,0 996,1 91 - - unknown
04:54 3,6 2,3 9,0 SSE 10,0 996,1 91 - - unknown
04:59 3,5 2,0 9,0 SSE 10,0 996,3 90 - - unknown
05:04 3,6 2,1 8,0 SSE 14,0 996,4 90 - - unknown
05:09 3,6 2,3 5,0 Est 8,0 996,5 91 - - unknown
05:14 3,6 2,3 9,0 SSE 9,0 996,5 91 - - unknown
05:19 3,8 2,4 10,0 Sud 12,0 996,4 91 - - unknown
05:24 3,8 2,5 6,0 SSE 11,0 996,5 91 - - unknown
05:29 3,8 2,5 9,0 SSE 10,0 996,6 91 - - unknown
05:34 3,8 2,5 8,0 SSE 9,0 996,8 91 - - unknown
05:39 3,8 2,5 11,0 Sud 16,0 996,8 91 - - unknown
05:44 3,8 2,5 7,0 Sud 10,0 996,9 91 - - unknown
05:49 3,8 2,5 7,0 Sud 8,0 997,1 91 - - unknown
05:54 3,8 2,5 8,0 Sud 9,0 997,0 91 - - unknown
05:59 3,8 2,5 16,0 Sud 17,0 997,1 91 - - unknown
06:04 3,7 2,4 10,0 SE 11,0 997,1 91 - - unknown
06:09 3,7 2,5 8,0 SO 11,0 997,3 92 - - unknown
06:14 3,7 2,5 8,0 SSO 11,0 997,3 92 - - unknown
06:19 3,7 2,5 10,0 SSO 10,0 997,1 92 - - unknown
06:24 3,7 2,6 8,0 ESE 10,0 997,2 93 - - unknown
06:29 3,6 2,6 10,0 SSO 13,0 997,3 93 - - unknown
06:34 3,6 2,6 9,0 SSO 12,0 997,3 93 - - unknown
06:39 3,6 2,6 14,0 SSO 15,0 997,4 93 - - unknown
06:44 3,6 2,6 9,0 SSO 11,0 997,4 93 - - unknown
06:49 3,7 2,7 9,0 SO 12,0 997,5 93 - - unknown
06:54 3,7 2,7 9,0 SSO 9,0 997,7 93 - - unknown
06:59 3,7 2,7 9,0 SSO 10,0 997,7 93 - - unknown
07:04 3,7 2,7 11,0 Sud 12,0 997,7 93 - - unknown
07:09 3,7 2,5 12,0 Sud 13,0 998,0 92 - - unknown
07:14 3,7 2,5 9,0 Sud 15,0 997,8 92 - - unknown
07:19 3,7 2,5 10,0 SE 11,0 997,9 92 - - unknown
07:24 3,7 2,5 8,0 Sud 11,0 998,1 92 - - unknown
07:29 3,7 2,4 13,0 Sud 16,0 998,1 92 - 0.2 unknown
07:34 3,6 2,4 7,0 Ouest 10,0 998,0 92 - 0.7 unknown
07:39 3,6 2,4 13,0 SO 16,0 998,0 92 - 1.5 unknown
07:44 3,6 2,3 12,0 SSE 13,0 998,1 91 - 2.2 unknown
07:49 3,6 2,4 5,0 ESE 8,0 998,2 92 - 2.1 unknown
07:54 3,6 2,4 9,0 Ouest 9,0 998,4 92 - 3.3 unknown
07:59 3,6 2,4 7,0 SO 8,0 998,5 92 - 2.6 unknown
08:04 3,7 2,5 7,0 SO 8,0 998,5 92 - 4.4 unknown
08:09 3,7 2,5 6,0 SO 8,0 998,6 92 - 7 unknown
08:14 3,7 2,5 8,0 Sud 8,0 998,5 92 - 10.7 unknown
08:19 3,7 2,5 8,0 SSE 12,0 998,6 92 - 11.3 unknown
08:24 3,8 2,5 9,0 SSO 12,0 998,6 91 - 18.2 unknown
08:29 3,8 2,5 7,0 SSE 10,0 998,6 91 - 23.1 unknown
08:34 3,9 2,6 10,0 Sud 12,0 998,8 91 - 34.8 unknown
08:39 3,9 2,6 12,0 SSO 14,0 998,6 91 - 36.5 unknown
08:44 3,9 2,4 7,0 Sud 11,0 998,7 90 - 36.2 unknown
08:49 4,0 2,6 8,0 OSO 12,0 998,9 91 - 72.5 unknown
08:54 4,0 2,7 13,0 Sud 16,0 999,0 91 - 60.5 unknown
08:59 4,0 2,5 12,0 SSO 17,0 999,2 90 - 44.5 unknown
09:04 4,1 2,6 9,0 SSO 11,0 999,3 90 - 45.4 unknown
09:09 4,1 2,6 5,0 Sud 11,0 999,2 90 - 53.7 unknown
09:14 4,1 2,6 11,0 SSO 12,0 999,3 90 - 84.7 unknown
09:19 4,1 2,6 16,0 SSO 18,0 999,3 90 - 82 unknown
09:24 4,2 2,9 8,0 SE 10,0 999,4 91 - 100.6 unknown
09:29 4,2 2,9 8,0 SSE 8,0 999,4 91 - 111.2 unknown
09:34 4,3 2,8 8,0 SE 9,0 999,5 90 - 117.1 unknown
09:39 4,4 2,9 9,0 SSO 10,0 999,6 90 - 152.3 unknown
09:44 4,5 3,0 10,0 Sud 11,0 999,7 90 - 177.3 unknown
09:49 4,6 3,1 10,0 Sud 10,0 999,6 90 - 184.5 unknown
09:54 4,7 3,2 6,0 NO 7,0 999,6 90 - 170.6 unknown
09:59 4,8 3,2 7,0 ESE 11,0 999,7 90 - 144.4 unknown
10:04 4,9 3,3 11,0 SE 13,0 999,8 90 - 157.3 unknown
10:09 4,9 3,2 5,0 SO 13,0 999,6 89 - 145.9 unknown
10:14 4,9 3,1 13,0 SSE 18,0 999,8 88 - 196.3 unknown
10:19 4,9 3,1 9,0 Sud 17,0 999,9 88 - 171.7 unknown
10:24 4,8 3,0 12,0 SO 17,0 999,9 88 - 272 unknown
10:29 4,9 3,1 7,0 SO 13,0 1000,0 88 - 264.9 unknown
10:34 5,0 3,2 18,0 SSO 27,0 1000,1 88 - 175.4 unknown
10:39 5,0 3,2 18,0 Sud 27,0 1000,2 88 - 182.4 unknown
10:44 5,1 3,3 11,0 Sud 21,0 1000,3 88 - 369.1 unknown
10:49 5,2 3,4 19,0 SSO 20,0 1000,4 88 - 288.2 unknown
10:54 5,5 3,7 10,0 SSE 12,0 1000,4 88 - 387.9 unknown
10:59 5,8 3,7 13,0 SSE 18,0 1000,3 88 - 332.6 unknown
11:04 5,8 3,5 16,0 Sud 19,0 1000,2 85 - 343.7 unknown
11:09 6,2 3,7 13,0 SSO 18,0 1000,3 86 - 372.9 unknown
11:14 6,4 3,8 8,0 SSE 17,0 1000,4 84 - 380.8 unknown
11:19 6,3 3,6 16,0 Sud 20,0 1000,5 83 - 351.1 unknown
11:24 6,4 3,9 9,0 SSE 19,0 1000,6 84 - 419 unknown
11:29 6,5 3,9 16,0 Sud 18,0 1000,4 84 - 384.5 unknown
11:34 6,5 3,7 17,0 Sud 18,0 1000,5 83 - 243.2 unknown
11:39 6,5 3,8 14,0 SSO 18,0 1000,6 83 - 372.3 unknown
11:44 6,6 3,9 12,0 SSO 16,0 1000,6 83 - 239.5 unknown
11:49 6,6 3,9 9,0 Sud 14,0 1000,6 83 - 400.5 unknown
11:54 6,9 4,0 12,0 Sud 17,0 1000,5 82 - 389.5 unknown
11:59 7,0 4,1 11,0 SSO 15,0 1000,7 82 - 375.5 unknown
12:04 7,1 4,1 15,0 SSO 19,0 1000,5 81 - 458 unknown
12:09 7,3 4,1 16,0 Sud 20,0 1000,6 81 - 407.2 unknown
12:14 7,4 4,0 15,0 Sud 21,0 1000,7 79 - 453.8 unknown
12:19 7,6 4,1 12,0 Sud 21,0 1000,6 79 - 512.1 unknown
12:24 7,6 4,2 12,0 Sud 20,0 1000,6 79 - 403.2 unknown
12:29 7,5 4,0 20,0 Sud 24,0 1000,7 79 - 434.5 unknown
12:34 7,5 4,2 13,0 SSE 14,0 1000,6 80 - 537.3 unknown
12:39 7,7 4,3 24,0 SO 24,0 1000,6 79 - 478 unknown
12:44 7,9 4,4 12,0 Sud 24,0 1000,4 79 - 389.3 unknown
12:49 8,0 4,5 13,0 SO 17,0 1000,6 79 - 528 unknown
12:54 8,1 4,4 15,0 SSO 22,0 1000,6 78 - 470.2 unknown
12:59 8,0 4,4 14,0 Sud 21,0 1000,5 78 - 331 unknown
13:04 7,9 4,3 15,0 Sud 16,0 1000,5 78 - 401.9 unknown
13:09 8,1 4,4 11,0 Sud 14,0 1000,5 78 - 506 unknown
13:14 8,3 4,5 17,0 SSO 19,0 1000,5 77 - 526.9 unknown
13:19 8,4 4,5 14,0 Sud 26,0 1000,3 77 - 387 unknown
13:24 8,4 4,2 16,0 SSE 21,0 1000,5 75 - 313.1 unknown
13:29 8,3 4,1 15,0 Sud 23,0 1000,5 75 - 210.9 unknown
13:34 8,4 4,3 10,0 SSO 14,0 1000,4 76 - 244.8 unknown
13:39 8,4 4,4 20,0 Sud 23,0 1000,3 76 - 428 unknown
13:44 8,8 4,6 16,0 Sud 19,0 1000,2 76 - 442.5 unknown
13:49 8,9 4,4 14,0 Sud 28,0 1000,0 74 - 317.8 unknown
13:54 8,9 4,0 17,0 SSO 28,0 1000,0 72 - 281.9 unknown
13:59 8,8 4,2 14,0 Sud 17,0 1000,1 73 - 244.4 unknown
14:04 8,8 4,2 16,0 SSO 21,0 1000,1 73 - 198.9 unknown
14:09 8,7 4,1 19,0 SSO 23,0 1000,3 73 - 166.9 unknown
14:14 8,7 4,1 14,0 Sud 17,0 1000,3 73 - 176.3 unknown
14:19 8,6 4,2 14,0 Sud 19,0 1000,3 74 - 145.5 unknown
14:24 8,7 4,2 14,0 Sud 19,0 1000,2 74 - 183.9 unknown
14:29 8,8 4,5 18,0 SSE 18,0 1000,1 75 - 369.1 unknown
14:34 9,0 4,4 15,0 Sud 24,0 1000,0 73 - 350.8 unknown
14:39 9,1 4,4 18,0 Sud 24,0 1000,0 73 - 309.6 unknown
14:44 9,1 4,3 16,0 Sud 24,0 1000,2 72 - 195.2 unknown
14:49 9,1 4,3 18,0 Sud 27,0 1000,2 72 - 195.2 unknown
14:54 9,1 4,3 16,0 Sud 18,0 1000,1 72 - 150.2 unknown
14:59 9,1 4,3 16,0 SSO 20,0 1000,1 72 - 136.4 unknown
15:04 9,0 4,2 15,0 SSO 19,0 1000,1 72 - 115.9 unknown
15:09 9,0 4,2 15,0 Sud 16,0 1000,1 72 - 98.5 unknown
15:14 9,0 4,1 17,0 SSO 25,0 1000,2 72 - 91.9 unknown
15:19 8,9 4,2 9,0 SSO 18,0 1000,1 73 - 85.3 unknown
15:24 8,8 4,4 14,0 Sud 17,0 1000,1 74 - 121.6 unknown
15:29 8,9 4,3 22,0 SSO 23,0 1000,0 73 - 168.2 unknown
15:34 8,9 4,5 12,0 Sud 17,0 999,9 74 - 126.9 unknown
15:39 8,9 4,5 10,0 Sud 10,0 999,9 74 - 104.3 unknown
15:44 9,0 4,6 12,0 Sud 14,0 999,8 74 - 85.5 unknown
15:49 8,9 4,5 8,0 Sud 8,0 999,8 74 - 78.7 unknown
15:54 8,9 4,5 12,0 Sud 16,0 999,8 74 - 72.3 unknown
15:59 8,9 4,5 12,0 Sud 17,0 999,8 74 - 71 unknown
16:04 8,9 4,3 12,0 SSE 21,0 999,9 73 - 56.3 unknown
16:09 8,9 4,3 12,0 SSO 15,0 999,7 73 - 50.8 unknown
16:14 8,9 4,5 10,0 SSE 12,0 999,7 74 - 41.2 unknown
16:19 8,8 4,4 12,0 Sud 13,0 999,8 74 - 40.3 unknown
16:24 8,8 4,4 7,0 Sud 12,0 999,7 74 - 36.5 unknown
16:29 8,8 4,6 8,0 SE 10,0 999,6 75 - 29.2 unknown
16:34 8,8 4,4 16,0 Sud 17,0 999,6 74 - 27.4 unknown
16:39 8,8 4,3 16,0 SSE 17,0 999,7 74 - 26.8 unknown
16:44 8,7 4,1 16,0 SE 16,0 999,6 73 - 18.7 unknown
16:49 8,7 4,1 13,0 SSE 16,0 999,5 73 - 16.4 unknown
16:54 8,7 4,1 13,0 SE 18,0 999,4 73 - 15.5 unknown
16:59 8,7 4,1 8,0 SSO 8,0 999,4 73 - 14.1 unknown
17:04 8,7 4,6 11,0 SSO 11,0 999,5 76 - 5.3 unknown
17:09 8,6 4,6 12,0 Sud 17,0 999,7 76 1,19 5.3 unknown
17:14 8,5 5,2 12,0 Sud 17,0 999,8 81 3,00 7.7 unknown
17:19 8,3 5,5 12,0 Sud 18,0 1000,0 84 3,61 8.1 unknown
17:24 8,0 5,5 27,0 OSO 33,0 1000,3 84 4,80 4.3 unknown
17:29 7,5 5,3 18,0 SSO 21,0 1000,3 86 6,60 3.2 unknown
17:34 6,9 4,7 9,0 SSO 13,0 1000,5 89 8,41 2.4 unknown
17:39 6,4 4,7 17,0 SSE 18,0 1000,6 89 9,60 4.1 unknown
17:44 5,9 4,1 17,0 Sud 20,0 1000,6 89 7,80 4.9 unknown
17:49 5,4 4,0 9,0 SSO 19,0 1000,4 91 4,80 8.5 unknown
17:54 5,3 4,0 11,0 Sud 14,0 1000,5 92 3,00 8.4 unknown
17:59 5,0 3,8 8,0 Sud 10,0 1000,3 92 2,39 6.8 unknown
18:04 4,9 3,9 11,0 Sud 11,0 1000,2 93 2,39 6.7 unknown
18:09 4,9 4,0 7,0 SO 8,0 1000,1 94 3,00 4.6 unknown
18:14 4,9 4,0 8,0 SSE 9,0 1000,2 94 1,19 4.4 unknown
18:19 4,9 4,2 6,0 SSO 8,0 1000,1 95 1,19 4.1 unknown
18:24 4,9 4,2 11,0 Sud 12,0 1000,2 95 0,61 3.2 unknown
18:29 4,9 4,2 8,0 Sud 12,0 1000,3 95 0,61 1.3 unknown
18:34 4,9 4,2 11,0 SSE 13,0 1000,4 95 - 0.8 unknown
18:39 4,9 4,3 8,0 SSE 10,0 1000,4 96 - 0.3 unknown
18:44 5,0 4,4 5,0 SE 9,0 1000,4 96 - 0.1 unknown
18:49 5,0 4,4 7,0 SE 9,0 1000,4 96 - - unknown
18:54 5,1 4,5 5,0 SSE 7,0 1000,3 96 - - unknown
18:59 5,2 4,6 6,0 SSE 7,0 1000,4 96 - - unknown
19:04 5,3 4,7 9,0 SSO 12,0 1000,5 96 - - unknown
19:09 5,5 4,9 10,0 SSE 18,0 1000,6 96 - - unknown
19:14 5,6 4,9 9,0 Sud 10,0 1000,6 96 - - unknown
19:19 5,6 5,0 8,0 SSO 11,0 1000,7 96 - - unknown
19:24 5,6 5,0 8,0 Sud 10,0 1000,6 96 - - unknown
19:29 5,7 5,0 9,0 Sud 13,0 1000,8 95 - - unknown
19:34 5,7 5,0 9,0 SSE 11,0 1000,7 95 0,61 - unknown
19:39 5,8 5,1 7,0 SSE 10,0 1000,6 95 0,61 - unknown
19:44 5,8 5,1 12,0 Sud 14,0 1000,7 95 0,61 - unknown
19:49 5,8 4,9 17,0 Sud 18,0 1000,6 94 - - unknown
19:54 5,8 4,9 15,0 Sud 18,0 1000,5 94 - - unknown
19:59 5,8 4,9 9,0 SSO 15,0 1000,7 94 - - unknown
20:04 5,8 4,9 17,0 SSO 18,0 1000,8 94 - - unknown
20:09 5,8 4,9 12,0 SSO 15,0 1000,8 94 - - unknown
20:14 5,8 4,9 11,0 SSE 13,0 1000,7 94 - - unknown
20:19 5,8 4,9 11,0 Sud 13,0 1000,8 94 - - unknown
20:24 5,8 4,9 13,0 Sud 18,0 1000,8 94 - - unknown
20:29 5,8 4,9 8,0 Sud 13,0 1000,8 94 - - unknown

Téléchargez votre copie de cet ensemble de données  à partir de WeatherUnderground

Nos données météo stockées sur Weather Underground. Script développé par Jim McMurry. Réécrit pour l'utilisation du modèle Leuven-Template